createdAt,value
2022-12-10T00:01:32.190Z,4.10
2022-12-10T00:03:59.591Z,4.10
2022-12-10T00:06:28.839Z,4.10
2022-12-10T00:08:55.903Z,4.10
2022-12-10T00:11:24.006Z,4.10
2022-12-10T00:13:51.968Z,4.10
2022-12-10T00:16:21.403Z,4.10
2022-12-10T00:18:49.036Z,4.10
2022-12-10T00:21:18.841Z,4.10
2022-12-10T00:23:46.562Z,4.10
2022-12-10T00:26:19.527Z,4.20
2022-12-10T00:28:47.402Z,4.20
2022-12-10T00:31:18.930Z,4.20
2022-12-10T00:33:46.641Z,4.30
2022-12-10T00:36:22.662Z,4.30
2022-12-10T00:38:50.524Z,4.30
2022-12-10T00:41:17.767Z,4.30
2022-12-10T00:43:45.182Z,4.40
2022-12-10T00:46:13.844Z,4.30
2022-12-10T00:48:41.469Z,4.30
2022-12-10T00:51:11.476Z,4.30
2022-12-10T00:53:40.315Z,4.20
2022-12-10T00:56:10.047Z,4.20
2022-12-10T00:58:38.824Z,4.20
2022-12-10T01:01:21.829Z,4.20
2022-12-10T01:03:52.189Z,4.20
2022-12-10T01:06:32.051Z,4.20
2022-12-10T01:09:00.972Z,4.20
2022-12-10T01:11:31.637Z,4.20
2022-12-10T01:13:59.755Z,4.20
2022-12-10T01:16:27.757Z,4.20
2022-12-10T01:18:59.419Z,4.20
2022-12-10T01:21:29.069Z,4.20
2022-12-10T01:23:57.632Z,4.10
2022-12-10T01:26:31.750Z,4.10
2022-12-10T01:28:59.062Z,4.10
2022-12-10T01:31:37.335Z,4.10
2022-12-10T01:34:08.882Z,4.20
2022-12-10T01:36:38.607Z,4.20
2022-12-10T01:39:07.669Z,4.20
2022-12-10T01:41:40.407Z,4.20
2022-12-10T01:44:10.263Z,4.10
2022-12-10T01:46:44.338Z,4.10
2022-12-10T01:49:17.121Z,4.10
2022-12-10T01:51:50.266Z,4.20
2022-12-10T01:54:22.073Z,4.20
2022-12-10T01:56:55.410Z,4.20
2022-12-10T01:59:26.470Z,4.20
2022-12-10T02:02:24.527Z,4.30
2022-12-10T02:05:26.095Z,4.20
2022-12-10T02:08:04.990Z,4.20
2022-12-10T02:10:53.574Z,4.20
2022-12-10T02:13:32.135Z,4.20
2022-12-10T02:16:13.201Z,4.10
2022-12-10T02:18:46.479Z,4.20
2022-12-10T02:21:41.382Z,4.10
2022-12-10T02:24:14.991Z,4.10
2022-12-10T02:27:03.136Z,4.10
2022-12-10T02:29:31.022Z,4.10
2022-12-10T02:32:02.293Z,4.10
2022-12-10T02:34:36.436Z,4.10
2022-12-10T02:37:18.601Z,4.10
2022-12-10T02:39:50.844Z,4.10
2022-12-10T02:42:20.000Z,4.10
2022-12-10T02:44:49.625Z,4.10
2022-12-10T02:47:21.253Z,4.10
2022-12-10T02:49:53.999Z,4.10
2022-12-10T02:52:23.697Z,4.10
2022-12-10T02:54:53.137Z,4.10
2022-12-10T02:58:08.822Z,4.20
2022-12-10T03:00:54.500Z,4.10
2022-12-10T03:03:34.488Z,4.20
2022-12-10T03:06:14.611Z,4.20
2022-12-10T03:08:57.273Z,4.30
2022-12-10T03:11:24.597Z,4.30
2022-12-10T03:14:04.863Z,4.30
2022-12-10T03:16:37.584Z,4.30
2022-12-10T03:19:08.770Z,4.40
2022-12-10T03:21:39.314Z,4.30
2022-12-10T03:24:10.391Z,4.30
2022-12-10T03:26:39.729Z,4.30
2022-12-10T03:29:09.330Z,4.30
2022-12-10T03:31:38.565Z,4.30
2022-12-10T03:34:06.831Z,4.30
2022-12-10T03:36:34.361Z,4.30
2022-12-10T03:39:02.249Z,4.20
2022-12-10T03:41:29.365Z,4.30
2022-12-10T03:43:58.503Z,4.30
2022-12-10T03:46:27.563Z,4.30
2022-12-10T03:49:41.104Z,4.30
2022-12-10T03:52:07.944Z,4.30
2022-12-10T03:54:34.830Z,4.30
2022-12-10T03:57:01.695Z,4.30
2022-12-10T03:59:28.605Z,4.30
2022-12-10T04:01:58.410Z,4.30
2022-12-10T04:04:25.805Z,4.30
2022-12-10T04:06:52.669Z,4.30
2022-12-10T04:09:19.741Z,4.30
2022-12-10T04:11:46.956Z,4.30
2022-12-10T04:14:33.415Z,4.20
2022-12-10T04:17:01.405Z,4.30
2022-12-10T04:19:28.347Z,4.20
2022-12-10T04:22:13.594Z,4.20
2022-12-10T04:24:59.537Z,4.30
2022-12-10T04:27:36.411Z,4.30
2022-12-10T04:30:06.703Z,4.30
2022-12-10T04:32:33.825Z,4.30
2022-12-10T04:35:00.941Z,4.30
2022-12-10T04:37:28.697Z,4.30
2022-12-10T04:39:55.643Z,4.30
2022-12-10T04:42:23.169Z,4.30
2022-12-10T04:44:50.116Z,4.30
2022-12-10T04:47:19.653Z,4.30
2022-12-10T04:49:46.539Z,4.40
2022-12-10T04:52:15.634Z,4.40
2022-12-10T04:54:43.441Z,4.30
2022-12-10T04:57:11.934Z,4.30
2022-12-10T04:59:38.874Z,4.30
2022-12-10T05:02:06.667Z,4.30
2022-12-10T05:04:33.876Z,4.30
2022-12-10T05:07:01.140Z,4.40
2022-12-10T05:09:28.342Z,4.40
2022-12-10T05:11:55.238Z,4.40
2022-12-10T05:14:22.160Z,4.40
2022-12-10T05:16:52.314Z,4.40
2022-12-10T05:19:24.406Z,4.40
2022-12-10T05:22:10.264Z,4.40
2022-12-10T05:24:38.121Z,4.40
2022-12-10T05:27:05.887Z,4.40
2022-12-10T05:29:33.995Z,4.40
2022-12-10T05:32:00.876Z,4.40
2022-12-10T05:34:27.750Z,4.30
2022-12-10T05:36:54.853Z,4.30
2022-12-10T05:39:21.782Z,4.30
2022-12-10T05:41:48.671Z,4.20
2022-12-10T05:44:15.477Z,4.20
2022-12-10T05:46:42.480Z,4.20
2022-12-10T05:49:09.415Z,4.10
2022-12-10T05:51:38.137Z,4.10
2022-12-10T05:54:06.387Z,4.10
2022-12-10T05:56:33.852Z,4.10
2022-12-10T05:59:03.392Z,4.10
2022-12-10T06:01:35.103Z,4.00
2022-12-10T06:04:04.088Z,4.00
2022-12-10T06:06:33.600Z,4.00
2022-12-10T06:09:00.440Z,4.00
2022-12-10T06:11:28.385Z,3.90
2022-12-10T06:13:57.440Z,4.00
2022-12-10T06:16:26.279Z,4.00
2022-12-10T06:18:53.532Z,4.00
2022-12-10T06:21:21.221Z,4.00
2022-12-10T06:23:49.236Z,4.00
2022-12-10T06:26:20.074Z,4.00
2022-12-10T06:28:47.990Z,3.90
2022-12-10T06:31:15.796Z,3.90
2022-12-10T06:33:43.154Z,3.90
2022-12-10T06:36:12.228Z,3.90
2022-12-10T06:38:39.605Z,3.90
2022-12-10T06:41:08.928Z,3.90
2022-12-10T06:43:36.554Z,3.90
2022-12-10T06:46:15.442Z,3.90
2022-12-10T06:48:43.033Z,3.90
2022-12-10T06:51:11.001Z,3.80
2022-12-10T06:53:39.657Z,3.80
2022-12-10T06:56:08.131Z,3.90
2022-12-10T06:58:35.998Z,3.90
2022-12-10T07:01:07.414Z,4.00
2022-12-10T07:03:34.554Z,4.00
2022-12-10T07:06:02.134Z,4.10
2022-12-10T07:08:29.526Z,4.10
2022-12-10T07:10:56.670Z,4.10
2022-12-10T07:13:29.781Z,4.20
2022-12-10T07:15:58.086Z,4.20
2022-12-10T07:18:25.380Z,4.20
2022-12-10T07:20:52.337Z,4.20
2022-12-10T07:23:19.523Z,4.20
2022-12-10T07:25:46.845Z,4.20
2022-12-10T07:28:14.112Z,4.20
2022-12-10T07:30:41.017Z,4.10
2022-12-10T07:33:07.908Z,4.00
2022-12-10T07:35:34.767Z,4.00
2022-12-10T07:38:01.709Z,3.90
2022-12-10T07:40:28.552Z,3.90
2022-12-10T07:42:55.434Z,3.90
2022-12-10T07:45:22.229Z,3.90
2022-12-10T07:47:49.104Z,3.90
2022-12-10T07:50:16.038Z,3.80
2022-12-10T07:52:42.886Z,3.90
2022-12-10T07:55:09.846Z,3.80
2022-12-10T07:57:36.747Z,3.80
2022-12-10T08:00:04.640Z,3.80
2022-12-10T08:02:38.999Z,3.80
2022-12-10T08:05:06.340Z,3.90
2022-12-10T08:07:33.776Z,3.90
2022-12-10T08:10:00.759Z,3.90
2022-12-10T08:12:27.677Z,3.90
2022-12-10T08:14:54.593Z,4.00
2022-12-10T08:17:21.448Z,3.90
2022-12-10T08:19:48.342Z,3.90
2022-12-10T08:22:15.741Z,3.90
2022-12-10T08:24:42.654Z,3.90
2022-12-10T08:27:09.469Z,3.90
2022-12-10T08:29:36.518Z,3.90
2022-12-10T08:32:03.682Z,3.90
2022-12-10T08:34:30.688Z,3.70
2022-12-10T08:36:57.647Z,3.70
2022-12-10T08:39:24.607Z,3.70
2022-12-10T08:41:54.049Z,3.70
2022-12-10T08:44:20.924Z,3.70
2022-12-10T08:46:47.815Z,3.60
2022-12-10T08:49:14.760Z,3.60
2022-12-10T08:51:42.350Z,3.60
2022-12-10T08:54:09.371Z,3.60
2022-12-10T08:56:36.350Z,3.60
2022-12-10T08:59:03.605Z,3.60
2022-12-10T09:01:30.638Z,3.60
2022-12-10T09:03:57.812Z,3.60
2022-12-10T09:06:26.231Z,3.70
2022-12-10T09:08:53.577Z,3.70
2022-12-10T09:11:30.684Z,3.70
2022-12-10T09:13:57.954Z,3.70
2022-12-10T09:16:33.732Z,3.80
2022-12-10T09:19:01.708Z,3.80
2022-12-10T09:21:30.683Z,3.80
2022-12-10T09:23:57.942Z,3.90
2022-12-10T09:26:25.329Z,3.90
2022-12-10T09:28:52.792Z,3.80
2022-12-10T09:31:20.970Z,3.80
2022-12-10T09:33:50.001Z,3.80
2022-12-10T09:36:17.346Z,3.70
2022-12-10T09:38:46.042Z,3.70
2022-12-10T09:41:34.556Z,3.80
2022-12-10T09:44:24.928Z,3.80
2022-12-10T09:47:00.902Z,3.70
2022-12-10T09:49:42.791Z,3.70
2022-12-10T09:52:22.846Z,3.60
2022-12-10T09:55:02.599Z,3.60
2022-12-10T09:57:43.155Z,3.60
2022-12-10T10:00:40.343Z,3.50
2022-12-10T10:03:11.808Z,3.50
2022-12-10T10:05:54.992Z,3.50
2022-12-10T10:08:27.977Z,3.60
2022-12-10T10:10:55.129Z,3.60
2022-12-10T10:13:21.926Z,3.70
2022-12-10T10:15:50.450Z,3.80
2022-12-10T10:18:40.518Z,3.80
2022-12-10T10:21:27.653Z,3.90
2022-12-10T10:23:56.168Z,3.90
2022-12-10T10:26:26.293Z,3.90
2022-12-10T10:29:03.208Z,4.00
2022-12-10T10:31:33.294Z,4.00
2022-12-10T10:34:23.209Z,4.00
2022-12-10T10:36:59.134Z,4.00
2022-12-10T10:39:31.775Z,4.00
2022-12-10T10:42:00.816Z,3.90
2022-12-10T10:44:37.206Z,3.80
2022-12-10T10:47:29.661Z,3.80
2022-12-10T10:50:00.272Z,3.70
2022-12-10T10:52:35.942Z,3.60
2022-12-10T10:55:03.256Z,3.50
2022-12-10T10:57:34.390Z,3.50
2022-12-10T11:00:23.853Z,3.60
2022-12-10T11:02:51.419Z,3.60
2022-12-10T11:05:33.850Z,3.70
2022-12-10T11:08:06.185Z,3.80
2022-12-10T11:10:34.335Z,3.80
2022-12-10T11:13:07.782Z,3.90
2022-12-10T11:15:41.078Z,3.90
2022-12-10T11:18:35.543Z,3.90
2022-12-10T11:21:20.363Z,4.00
2022-12-10T11:23:50.758Z,4.00
2022-12-10T11:26:41.072Z,4.00
2022-12-10T11:29:46.159Z,4.00
2022-12-10T11:32:29.486Z,3.90
2022-12-10T11:35:03.789Z,4.00
2022-12-10T11:37:35.182Z,4.00
2022-12-10T11:40:24.309Z,4.00
2022-12-10T11:43:03.215Z,3.90
2022-12-10T11:45:30.029Z,3.90
2022-12-10T11:48:08.823Z,3.90
2022-12-10T11:50:38.421Z,3.90
2022-12-10T11:53:20.353Z,4.00
2022-12-10T11:55:56.374Z,4.00
2022-12-10T11:58:23.845Z,4.00
2022-12-10T12:01:06.458Z,4.00
2022-12-10T12:03:49.063Z,4.00
2022-12-10T12:06:27.754Z,4.10
2022-12-10T12:09:03.329Z,4.20
2022-12-10T12:11:44.915Z,4.10
2022-12-10T12:14:22.370Z,4.10
2022-12-10T12:17:01.446Z,4.10
2022-12-10T12:20:15.264Z,4.20
2022-12-10T12:22:47.673Z,4.30
2022-12-10T12:25:27.872Z,4.40
2022-12-10T12:28:17.574Z,4.50
2022-12-10T12:30:48.666Z,4.50
2022-12-10T12:33:31.922Z,4.60
2022-12-10T12:36:12.443Z,4.60
2022-12-10T12:38:54.564Z,4.60
2022-12-10T12:41:33.066Z,4.60
2022-12-10T12:44:18.879Z,4.60
2022-12-10T12:46:48.690Z,4.60
2022-12-10T12:49:34.996Z,4.60
2022-12-10T12:52:20.023Z,4.60
2022-12-10T12:54:47.380Z,4.50
2022-12-10T12:57:34.580Z,4.60
2022-12-10T13:00:11.651Z,4.60
2022-12-10T13:03:09.831Z,4.60
2022-12-10T13:05:39.736Z,4.60
2022-12-10T13:08:19.084Z,4.50
2022-12-10T13:10:50.710Z,4.50
2022-12-10T13:13:32.078Z,4.50
2022-12-10T13:16:38.074Z,4.40
2022-12-10T13:19:20.009Z,4.50
2022-12-10T13:21:59.055Z,4.50
2022-12-10T13:24:38.243Z,4.50
2022-12-10T13:27:29.509Z,4.60
2022-12-10T13:29:59.211Z,4.60
2022-12-10T13:32:46.225Z,4.50
2022-12-10T13:35:14.062Z,4.50
2022-12-10T13:37:50.117Z,4.50
2022-12-10T13:40:50.594Z,4.60
2022-12-10T13:43:55.211Z,4.50
2022-12-10T13:47:03.304Z,4.50
2022-12-10T13:49:32.225Z,4.50
2022-12-10T13:52:08.196Z,4.50
2022-12-10T13:54:56.964Z,4.60
2022-12-10T13:57:38.496Z,4.60
2022-12-10T14:00:14.722Z,4.60
2022-12-10T14:03:03.079Z,4.60
2022-12-10T14:05:52.110Z,4.60
2022-12-10T14:08:24.476Z,4.60
2022-12-10T14:10:52.157Z,4.60
2022-12-10T14:13:22.807Z,4.60
2022-12-10T14:15:56.640Z,4.60
2022-12-10T14:18:24.183Z,4.60
2022-12-10T14:20:54.621Z,4.60
2022-12-10T14:23:45.635Z,4.60
2022-12-10T14:26:19.469Z,4.60
2022-12-10T14:29:09.846Z,4.60
2022-12-10T14:31:40.560Z,4.60
2022-12-10T14:34:09.762Z,4.60
2022-12-10T14:36:46.262Z,4.60
2022-12-10T14:39:18.815Z,4.70
2022-12-10T14:41:46.506Z,4.70
2022-12-10T14:44:16.397Z,4.70
2022-12-10T14:46:44.198Z,4.70
2022-12-10T14:49:20.796Z,4.80
2022-12-10T14:51:48.003Z,4.80
2022-12-10T14:54:29.366Z,4.80
2022-12-10T14:56:57.148Z,4.80
2022-12-10T14:59:33.577Z,4.80
2022-12-10T15:02:03.486Z,4.80
2022-12-10T15:04:42.464Z,4.80
2022-12-10T15:07:15.654Z,4.80
2022-12-10T15:09:43.355Z,4.90
2022-12-10T15:12:43.976Z,4.90
2022-12-10T15:15:26.037Z,4.90
2022-12-10T15:18:00.761Z,5.00
2022-12-10T15:20:33.140Z,5.00
2022-12-10T15:23:29.390Z,5.00
2022-12-10T15:26:10.581Z,5.00
2022-12-10T15:28:39.326Z,5.00
2022-12-10T15:31:13.982Z,4.90
2022-12-10T15:33:48.823Z,4.90
2022-12-10T15:36:32.564Z,5.00
2022-12-10T15:39:04.525Z,5.00
2022-12-10T15:41:51.156Z,5.00
2022-12-10T15:44:27.260Z,4.90
2022-12-10T15:47:26.786Z,4.90
2022-12-10T15:49:56.790Z,4.90
2022-12-10T15:52:30.221Z,4.90
2022-12-10T15:54:58.200Z,4.90
2022-12-10T15:57:37.412Z,4.90
2022-12-10T16:00:08.994Z,4.90
2022-12-10T16:02:39.286Z,4.90
2022-12-10T16:05:21.904Z,4.90
2022-12-10T16:07:50.630Z,4.90
2022-12-10T16:10:20.237Z,5.00
2022-12-10T16:12:50.057Z,5.00
2022-12-10T16:15:22.987Z,5.00
2022-12-10T16:17:49.913Z,5.10
2022-12-10T16:20:26.345Z,5.10
2022-12-10T16:22:57.555Z,5.00
2022-12-10T16:25:26.479Z,5.00
2022-12-10T16:27:53.686Z,5.10
2022-12-10T16:30:22.540Z,5.00
2022-12-10T16:32:49.897Z,5.00
2022-12-10T16:35:17.259Z,5.10
2022-12-10T16:37:50.003Z,5.10
2022-12-10T16:40:18.431Z,5.10
2022-12-10T16:42:45.284Z,5.10
2022-12-10T16:45:29.829Z,5.10
2022-12-10T16:47:56.775Z,5.00
2022-12-10T16:50:24.386Z,5.00
2022-12-10T16:52:53.196Z,5.00
2022-12-10T16:55:22.848Z,5.00
2022-12-10T16:57:50.113Z,5.00
2022-12-10T17:00:21.090Z,5.00
2022-12-10T17:02:48.594Z,5.00
2022-12-10T17:05:18.594Z,5.00
2022-12-10T17:07:45.476Z,4.90
2022-12-10T17:10:13.870Z,4.90
2022-12-10T17:12:42.555Z,4.80
2022-12-10T17:15:17.432Z,4.80
2022-12-10T17:17:44.623Z,4.80
2022-12-10T17:20:21.275Z,4.80
2022-12-10T17:22:48.166Z,4.90
2022-12-10T17:25:15.162Z,4.90
2022-12-10T17:27:42.447Z,4.90
2022-12-10T17:30:15.050Z,4.90
2022-12-10T17:32:43.286Z,4.90
2022-12-10T17:35:11.158Z,4.90
2022-12-10T17:37:38.991Z,4.90
2022-12-10T17:40:20.549Z,5.00
2022-12-10T17:42:47.494Z,5.00
2022-12-10T17:45:21.908Z,5.00
2022-12-10T17:47:49.460Z,5.00
2022-12-10T17:50:32.393Z,5.00
2022-12-10T17:53:03.937Z,4.90
2022-12-10T17:55:31.458Z,5.00
2022-12-10T17:57:59.422Z,5.00
2022-12-10T18:00:30.908Z,5.00
2022-12-10T18:02:57.691Z,5.00
2022-12-10T18:05:25.106Z,4.90
2022-12-10T18:07:52.022Z,4.80
2022-12-10T18:10:26.241Z,4.70
2022-12-10T18:12:54.659Z,4.70
2022-12-10T18:15:22.966Z,4.70
2022-12-10T18:17:50.706Z,4.70
2022-12-10T18:20:23.432Z,4.60
2022-12-10T18:22:51.925Z,4.50
2022-12-10T18:25:22.632Z,4.50
2022-12-10T18:27:50.665Z,4.50
2022-12-10T18:30:21.109Z,4.50
2022-12-10T18:32:48.543Z,4.40
2022-12-10T18:35:15.892Z,4.40
2022-12-10T18:37:43.476Z,4.40
2022-12-10T18:40:16.753Z,4.40
2022-12-10T18:42:47.080Z,4.40
2022-12-10T18:45:14.946Z,4.50
2022-12-10T18:47:41.948Z,4.50
2022-12-10T18:50:24.149Z,4.50
2022-12-10T18:52:51.839Z,4.50
2022-12-10T18:55:20.255Z,4.50
2022-12-10T18:58:02.538Z,4.60
2022-12-10T19:00:35.606Z,4.60
2022-12-10T19:03:03.390Z,4.60
2022-12-10T19:05:30.646Z,4.50
2022-12-10T19:07:57.580Z,4.50
2022-12-10T19:10:25.829Z,4.50
2022-12-10T19:12:52.974Z,4.50
2022-12-10T19:15:21.591Z,4.50
2022-12-10T19:17:49.378Z,4.50
2022-12-10T19:20:24.779Z,4.50
2022-12-10T19:22:53.202Z,4.50
2022-12-10T19:25:21.655Z,4.50
2022-12-10T19:27:49.219Z,4.50
2022-12-10T19:30:18.040Z,4.50
2022-12-10T19:32:46.260Z,4.60
2022-12-10T19:35:15.082Z,4.60
2022-12-10T19:37:44.589Z,4.60
2022-12-10T19:40:22.125Z,4.60
2022-12-10T19:42:49.426Z,4.60
2022-12-10T19:45:17.663Z,4.70
2022-12-10T19:47:45.143Z,4.70
2022-12-10T19:50:19.682Z,4.80
2022-12-10T19:52:47.632Z,4.80
2022-12-10T19:55:16.026Z,4.80
2022-12-10T19:57:43.305Z,4.90
2022-12-10T20:00:17.151Z,4.90
2022-12-10T20:02:44.366Z,5.00
2022-12-10T20:05:16.492Z,5.00
2022-12-10T20:07:44.926Z,5.00
2022-12-10T20:10:27.092Z,4.90
2022-12-10T20:12:54.446Z,4.90
2022-12-10T20:15:22.753Z,5.00
2022-12-10T20:17:49.926Z,5.00
2022-12-10T20:20:26.271Z,5.00
2022-12-10T20:22:54.053Z,5.10
2022-12-10T20:25:23.435Z,5.20
2022-12-10T20:27:51.195Z,5.20
2022-12-10T20:30:24.341Z,5.30
2022-12-10T20:32:51.740Z,5.30
2022-12-10T20:35:20.245Z,5.30
2022-12-10T20:37:47.826Z,5.30
2022-12-10T20:40:32.772Z,5.30
2022-12-10T20:43:00.928Z,5.30
2022-12-10T20:45:27.889Z,5.30
2022-12-10T20:47:54.799Z,5.40
2022-12-10T20:50:21.851Z,5.40
2022-12-10T20:52:49.148Z,5.40
2022-12-10T20:55:16.429Z,5.40
2022-12-10T20:57:43.350Z,5.40
2022-12-10T21:00:16.726Z,5.40
2022-12-10T21:02:44.589Z,5.40
2022-12-10T21:05:13.075Z,5.40
2022-12-10T21:07:40.274Z,5.40
2022-12-10T21:10:08.100Z,5.40
2022-12-10T21:12:34.936Z,5.40
2022-12-10T21:15:07.493Z,5.50
2022-12-10T21:17:37.466Z,5.50
2022-12-10T21:20:04.793Z,5.50
2022-12-10T21:22:33.168Z,5.50
2022-12-10T21:25:00.036Z,5.50
2022-12-10T21:27:26.999Z,5.50
2022-12-10T21:29:53.852Z,5.50
2022-12-10T21:32:20.712Z,5.50
2022-12-10T21:34:47.567Z,5.50
2022-12-10T21:37:14.461Z,5.50
2022-12-10T21:39:41.691Z,5.50
2022-12-10T21:42:30.677Z,5.40
2022-12-10T21:44:58.128Z,5.40
2022-12-10T21:47:25.363Z,5.40
2022-12-10T21:49:54.432Z,5.40
2022-12-10T21:52:21.285Z,5.40
2022-12-10T21:54:48.183Z,5.30
2022-12-10T21:57:14.977Z,5.30
2022-12-10T21:59:41.862Z,5.20
2022-12-10T22:02:10.168Z,5.30
2022-12-10T22:04:37.691Z,5.20
2022-12-10T22:07:04.494Z,5.30
2022-12-10T22:09:31.356Z,5.30
2022-12-10T22:11:58.198Z,5.30
2022-12-10T22:14:25.065Z,5.30
2022-12-10T22:16:51.963Z,5.40
2022-12-10T22:19:19.328Z,5.50
2022-12-10T22:21:46.227Z,5.50
2022-12-10T22:24:13.137Z,5.50
2022-12-10T22:26:40.162Z,5.40
2022-12-10T22:29:06.968Z,5.40
2022-12-10T22:31:36.311Z,5.40
2022-12-10T22:34:03.317Z,5.30
2022-12-10T22:36:30.174Z,5.30
2022-12-10T22:38:57.018Z,5.40
2022-12-10T22:41:24.342Z,5.40
2022-12-10T22:43:51.938Z,5.30
2022-12-10T22:46:20.288Z,5.30
2022-12-10T22:48:47.554Z,5.30
2022-12-10T22:51:14.468Z,5.40
2022-12-10T22:53:41.379Z,5.40
2022-12-10T22:56:12.673Z,5.30
2022-12-10T22:58:39.627Z,5.30
2022-12-10T23:01:06.954Z,5.30
2022-12-10T23:03:34.169Z,5.40
2022-12-10T23:06:01.563Z,5.40
2022-12-10T23:08:31.231Z,5.40
2022-12-10T23:10:58.492Z,5.40
2022-12-10T23:13:25.333Z,5.50
2022-12-10T23:15:53.667Z,5.50
2022-12-10T23:18:22.155Z,5.60
2022-12-10T23:20:50.424Z,5.60
2022-12-10T23:23:20.921Z,5.60
2022-12-10T23:25:48.885Z,5.60
2022-12-10T23:28:16.835Z,5.70
2022-12-10T23:30:44.694Z,5.70
2022-12-10T23:33:15.159Z,5.70
2022-12-10T23:35:45.173Z,5.80
2022-12-10T23:38:12.112Z,5.70
2022-12-10T23:40:44.228Z,5.70
2022-12-10T23:43:11.930Z,5.70
2022-12-10T23:45:42.937Z,5.70
2022-12-10T23:48:10.559Z,5.70
2022-12-10T23:50:37.496Z,5.70
2022-12-10T23:53:05.968Z,5.80
2022-12-10T23:55:33.198Z,5.90
2022-12-10T23:58:00.121Z,5.80
